createdAt,value
2023-04-18T00:01:09.678Z,97355.63
2023-04-18T00:03:15.901Z,97355.34
2023-04-18T00:05:18.208Z,97359.84
2023-04-18T00:07:19.995Z,97350.63
2023-04-18T00:09:21.764Z,97354.22
2023-04-18T00:11:23.395Z,97355.84
2023-04-18T00:13:25.087Z,97355.47
2023-04-18T00:15:26.696Z,97350.41
2023-04-18T00:17:28.381Z,97346.66
2023-04-18T00:19:30.112Z,97349.56
2023-04-18T00:21:31.971Z,97341.50
2023-04-18T00:23:34.319Z,97345.72
2023-04-18T00:25:35.922Z,97346.13
2023-04-18T00:27:38.947Z,97341.44
2023-04-18T00:29:40.834Z,97342.63
2023-04-18T00:31:43.226Z,97338.22
2023-04-18T00:33:44.993Z,97342.31
2023-04-18T00:35:46.513Z,97333.94
2023-04-18T00:37:49.617Z,97334.22
2023-04-18T00:39:53.835Z,97335.41
2023-04-18T00:41:55.603Z,97336.22
2023-04-18T00:43:57.240Z,97337.88
2023-04-18T00:46:01.419Z,97337.41
2023-04-18T00:48:03.466Z,97333.28
2023-04-18T00:50:05.976Z,97333.41
2023-04-18T00:52:07.614Z,97329.56
2023-04-18T00:54:11.252Z,97330.44
2023-04-18T00:56:13.011Z,97332.81
2023-04-18T00:58:14.612Z,97331.47
2023-04-18T01:00:16.501Z,97321.72
2023-04-18T01:02:19.166Z,97328.41
2023-04-18T01:04:20.976Z,97324.34
2023-04-18T01:06:23.557Z,97320.44
2023-04-18T01:08:25.464Z,97323.13
2023-04-18T01:10:28.610Z,97327.16
2023-04-18T01:12:30.685Z,97324.56
2023-04-18T01:14:32.508Z,97317.50
2023-04-18T01:16:34.152Z,97312.59
2023-04-18T01:18:36.976Z,97316.19
2023-04-18T01:20:46.601Z,97319.97
2023-04-18T01:22:48.102Z,97314.66
2023-04-18T01:24:49.652Z,97306.16
2023-04-18T01:26:52.436Z,97309.66
2023-04-18T01:28:54.316Z,97308.47
2023-04-18T01:30:55.900Z,97308.41
2023-04-18T01:32:57.568Z,97308.78
2023-04-18T01:35:01.999Z,97309.63
2023-04-18T01:37:03.654Z,97309.44
2023-04-18T01:39:05.397Z,97312.53
2023-04-18T01:41:07.143Z,97304.91
2023-04-18T01:43:08.842Z,97307.16
2023-04-18T01:45:13.171Z,97306.78
2023-04-18T01:47:15.623Z,97308.94
2023-04-18T01:49:17.224Z,97299.69
2023-04-18T01:51:18.734Z,97299.28
2023-04-18T01:53:20.407Z,97292.47
2023-04-18T01:55:22.169Z,97297.75
2023-04-18T01:57:23.812Z,97294.25
2023-04-18T01:59:25.500Z,97298.78
2023-04-18T02:01:27.403Z,97300.19
2023-04-18T02:03:29.046Z,97288.69
2023-04-18T02:05:30.717Z,97290.16
2023-04-18T02:07:34.328Z,97289.56
2023-04-18T02:09:35.818Z,97305.09
2023-04-18T02:11:38.294Z,97299.75
2023-04-18T02:13:39.865Z,97293.88
2023-04-18T02:15:44.368Z,97298.66
2023-04-18T02:17:50.492Z,97306.84
2023-04-18T02:19:52.320Z,97314.72
2023-04-18T02:21:54.420Z,97306.78
2023-04-18T02:23:59.040Z,97310.41
2023-04-18T02:26:00.875Z,97306.38
2023-04-18T02:28:02.499Z,97302.63
2023-04-18T02:30:07.093Z,97305.09
2023-04-18T02:32:09.161Z,97305.56
2023-04-18T02:34:10.890Z,97297.88
2023-04-18T02:36:13.116Z,97306.34
2023-04-18T02:38:15.997Z,97301.00
2023-04-18T02:40:17.893Z,97303.84
2023-04-18T02:42:19.390Z,97299.31
2023-04-18T02:44:20.879Z,97300.16
2023-04-18T02:46:22.760Z,97291.94
2023-04-18T02:48:24.543Z,97296.56
2023-04-18T02:50:26.964Z,97298.81
2023-04-18T02:52:30.520Z,97300.28
2023-04-18T02:54:32.156Z,97294.91
2023-04-18T02:56:40.054Z,97291.25
2023-04-18T02:58:50.861Z,97294.84
2023-04-18T03:01:13.012Z,97297.28
2023-04-18T03:03:25.847Z,97299.56
2023-04-18T03:05:35.995Z,97290.38
2023-04-18T03:07:39.613Z,97289.66
2023-04-18T03:09:41.187Z,97296.69
2023-04-18T03:11:52.267Z,97293.72
2023-04-18T03:13:58.849Z,97297.84
2023-04-18T03:16:05.793Z,97292.44
2023-04-18T03:18:08.591Z,97297.94
2023-04-18T03:20:12.669Z,97300.28
2023-04-18T03:22:16.201Z,97299.09
2023-04-18T03:24:25.250Z,97311.09
2023-04-18T03:26:29.321Z,97299.69
2023-04-18T03:28:31.960Z,97306.31
2023-04-18T03:30:33.705Z,97293.03
2023-04-18T03:32:36.653Z,97292.59
2023-04-18T03:34:38.777Z,97301.06
2023-04-18T03:36:42.970Z,97288.47
2023-04-18T03:38:46.133Z,97292.75
2023-04-18T03:40:47.756Z,97292.78
2023-04-18T03:42:56.387Z,97290.91
2023-04-18T03:44:57.945Z,97295.97
2023-04-18T03:47:00.438Z,97291.22
2023-04-18T03:49:03.725Z,97286.28
2023-04-18T03:51:05.970Z,97292.03
2023-04-18T03:53:07.847Z,97292.03
2023-04-18T03:55:11.911Z,97287.84
2023-04-18T03:57:13.459Z,97294.34
2023-04-18T03:59:16.186Z,97293.47
2023-04-18T04:01:21.744Z,97293.91
2023-04-18T04:03:30.337Z,97288.13
2023-04-18T04:05:32.879Z,97290.59
2023-04-18T04:07:34.808Z,97296.63
2023-04-18T04:09:36.523Z,97288.19
2023-04-18T04:11:38.384Z,97299.81
2023-04-18T04:13:42.141Z,97298.31
2023-04-18T04:15:44.183Z,97297.97
2023-04-18T04:17:46.042Z,97297.66
2023-04-18T04:19:49.726Z,97302.47
2023-04-18T04:21:54.146Z,97296.47
2023-04-18T04:23:57.230Z,97299.00
2023-04-18T04:26:10.153Z,97307.78
2023-04-18T04:28:23.766Z,97307.03
2023-04-18T04:30:31.639Z,97307.44
2023-04-18T04:32:33.565Z,97306.84
2023-04-18T04:34:35.892Z,97312.50
2023-04-18T04:36:41.083Z,97312.19
2023-04-18T04:38:44.315Z,97300.00
2023-04-18T04:40:46.385Z,97304.63
2023-04-18T04:42:49.174Z,97310.09
2023-04-18T04:44:57.342Z,97301.31
2023-04-18T04:46:59.328Z,97304.00
2023-04-18T04:49:06.582Z,97311.31
2023-04-18T04:51:08.237Z,97309.00
2023-04-18T04:53:19.212Z,97313.69
2023-04-18T04:55:21.391Z,97314.97
2023-04-18T04:57:23.040Z,97312.81
2023-04-18T04:59:24.851Z,97315.75
2023-04-18T05:01:26.632Z,97317.66
2023-04-18T05:03:28.745Z,97320.22
2023-04-18T05:05:31.927Z,97311.09
2023-04-18T05:07:33.429Z,97322.25
2023-04-18T05:09:35.028Z,97326.91
2023-04-18T05:11:36.542Z,97317.09
2023-04-18T05:13:38.078Z,97317.47
2023-04-18T05:15:39.734Z,97322.97
2023-04-18T05:17:41.595Z,97320.31
2023-04-18T05:19:44.255Z,97323.03
2023-04-18T05:21:45.834Z,97321.59
2023-04-18T05:23:47.349Z,97329.66
2023-04-18T05:25:48.883Z,97330.34
2023-04-18T05:27:50.527Z,97336.56
2023-04-18T05:29:53.558Z,97328.63
2023-04-18T05:31:55.354Z,97335.88
2023-04-18T05:33:57.004Z,97333.88
2023-04-18T05:35:59.396Z,97336.97
2023-04-18T05:38:00.956Z,97342.16
2023-04-18T05:40:03.779Z,97348.81
2023-04-18T05:42:05.282Z,97341.56
2023-04-18T05:44:06.896Z,97341.19
2023-04-18T05:46:09.073Z,97347.66
2023-04-18T05:48:10.916Z,97355.31
2023-04-18T05:50:18.079Z,97350.81
2023-04-18T05:52:19.624Z,97350.97
2023-04-18T05:54:21.450Z,97349.38
2023-04-18T05:56:23.030Z,97350.28
2023-04-18T05:58:24.598Z,97353.31
2023-04-18T06:00:26.293Z,97355.72
2023-04-18T06:02:28.052Z,97358.09
2023-04-18T06:04:30.360Z,97361.56
2023-04-18T06:06:32.967Z,97374.59
2023-04-18T06:08:34.428Z,97369.28
2023-04-18T06:10:37.721Z,97373.25
2023-04-18T06:12:40.827Z,97366.44
2023-04-18T06:14:42.518Z,97375.38
2023-04-18T06:16:44.275Z,97369.78
2023-04-18T06:18:45.931Z,97375.63
2023-04-18T06:20:47.497Z,97371.47
2023-04-18T06:22:49.073Z,97372.00
2023-04-18T06:24:50.931Z,97372.03
2023-04-18T06:26:54.007Z,97367.47
2023-04-18T06:28:55.909Z,97365.97
2023-04-18T06:30:57.556Z,97378.59
2023-04-18T06:32:59.447Z,97363.13
2023-04-18T06:35:01.077Z,97375.06
2023-04-18T06:37:02.699Z,97373.56
2023-04-18T06:39:04.469Z,97368.19
2023-04-18T06:41:06.111Z,97372.47
2023-04-18T06:43:07.904Z,97370.59
2023-04-18T06:45:12.860Z,97382.94
2023-04-18T06:47:14.531Z,97374.81
2023-04-18T06:49:16.193Z,97369.16
2023-04-18T06:51:17.792Z,97372.69
2023-04-18T06:53:19.661Z,97369.25
2023-04-18T06:55:21.511Z,97373.91
2023-04-18T06:57:23.102Z,97375.47
2023-04-18T06:59:24.690Z,97382.31
2023-04-18T07:01:26.374Z,97383.13
2023-04-18T07:03:28.151Z,97382.69
2023-04-18T07:05:29.774Z,97383.94
2023-04-18T07:07:32.339Z,97387.03
2023-04-18T07:09:33.847Z,97390.19
2023-04-18T07:11:35.432Z,97381.41
2023-04-18T07:13:37.161Z,97387.59
2023-04-18T07:15:38.771Z,97386.81
2023-04-18T07:17:40.522Z,97385.66
2023-04-18T07:19:42.346Z,97400.25
2023-04-18T07:21:45.804Z,97395.97
2023-04-18T07:23:47.310Z,97396.72
2023-04-18T07:25:49.495Z,97392.44
2023-04-18T07:27:51.051Z,97395.50
2023-04-18T07:29:52.764Z,97399.31
2023-04-18T07:31:54.548Z,97396.38
2023-04-18T07:33:56.122Z,97395.25
2023-04-18T07:35:57.977Z,97392.06
2023-04-18T07:37:59.484Z,97400.22
2023-04-18T07:40:00.967Z,97394.81
2023-04-18T07:42:05.844Z,97399.84
2023-04-18T07:44:07.497Z,97404.41
2023-04-18T07:46:09.081Z,97407.81
2023-04-18T07:48:11.280Z,97407.81
2023-04-18T07:50:13.032Z,97408.88
2023-04-18T07:52:14.795Z,97412.19
2023-04-18T07:54:16.507Z,97408.03
2023-04-18T07:56:18.550Z,97405.25
2023-04-18T07:58:20.483Z,97404.81
2023-04-18T08:00:22.051Z,97413.78
2023-04-18T08:02:23.729Z,97414.81
2023-04-18T08:04:27.013Z,97417.81
2023-04-18T08:06:30.926Z,97413.97
2023-04-18T08:08:33.506Z,97406.13
2023-04-18T08:10:35.575Z,97415.63
2023-04-18T08:12:37.648Z,97411.31
2023-04-18T08:14:39.202Z,97408.38
2023-04-18T08:16:40.857Z,97405.31
2023-04-18T08:18:42.486Z,97408.31
2023-04-18T08:20:44.099Z,97413.97
2023-04-18T08:23:02.362Z,97405.28
2023-04-18T08:25:07.526Z,97404.91
2023-04-18T08:27:09.043Z,97413.41
2023-04-18T08:29:11.710Z,97409.31
2023-04-18T08:31:14.922Z,97417.81
2023-04-18T08:33:16.739Z,97431.56
2023-04-18T08:35:18.558Z,97417.94
2023-04-18T08:37:20.361Z,97416.72
2023-04-18T08:39:25.450Z,97422.34
2023-04-18T08:41:29.904Z,97425.38
2023-04-18T08:43:31.528Z,97418.34
2023-04-18T08:45:33.516Z,97434.25
2023-04-18T08:47:37.713Z,97421.94
2023-04-18T08:49:40.056Z,97427.91
2023-04-18T08:51:43.115Z,97418.25
2023-04-18T08:53:45.355Z,97421.88
2023-04-18T08:55:50.365Z,97430.16
2023-04-18T08:57:54.970Z,97423.31
2023-04-18T09:00:00.594Z,97429.56
2023-04-18T09:02:06.384Z,97431.22
2023-04-18T09:04:07.987Z,97444.94
2023-04-18T09:06:18.850Z,97438.22
2023-04-18T09:08:26.653Z,97439.94
2023-04-18T09:10:34.615Z,97439.22
2023-04-18T09:12:52.518Z,97438.91
2023-04-18T09:15:15.112Z,97428.81
2023-04-18T09:17:43.797Z,97432.09
2023-04-18T09:19:50.037Z,97438.19
2023-04-18T09:21:59.858Z,97437.59
2023-04-18T09:24:24.149Z,97442.13
2023-04-18T09:26:36.221Z,97437.75
2023-04-18T09:28:38.289Z,97442.56
2023-04-18T09:30:41.089Z,97449.25
2023-04-18T09:32:45.003Z,97451.19
2023-04-18T09:34:47.100Z,97437.13
2023-04-18T09:37:05.707Z,97441.84
2023-04-18T09:39:07.552Z,97447.56
2023-04-18T09:41:10.509Z,97443.41
2023-04-18T09:43:19.601Z,97446.28
2023-04-18T09:45:22.235Z,97447.19
2023-04-18T09:47:23.870Z,97433.72
2023-04-18T09:49:25.659Z,97439.22
2023-04-18T09:51:27.282Z,97437.94
2023-04-18T09:53:30.079Z,97436.00
2023-04-18T09:55:32.179Z,97434.84
2023-04-18T09:57:35.737Z,97430.69
2023-04-18T09:59:48.037Z,97437.44
2023-04-18T10:01:51.322Z,97435.03
2023-04-18T10:03:56.277Z,97437.06
2023-04-18T10:05:58.100Z,97431.88
2023-04-18T10:08:00.096Z,97433.91
2023-04-18T10:10:02.880Z,97447.81
2023-04-18T10:12:04.487Z,97442.00
2023-04-18T10:14:13.302Z,97436.38
2023-04-18T10:16:16.926Z,97435.88
2023-04-18T10:18:23.205Z,97445.53
2023-04-18T10:20:26.735Z,97445.16
2023-04-18T10:22:28.389Z,97433.63
2023-04-18T10:24:45.295Z,97437.47
2023-04-18T10:26:47.317Z,97437.00
2023-04-18T10:28:53.510Z,97428.78
2023-04-18T10:31:05.530Z,97436.00
2023-04-18T10:35:28.713Z,97435.09
2023-04-18T10:37:31.919Z,97436.13
2023-04-18T10:39:57.510Z,97433.38
2023-04-18T10:41:59.103Z,97432.75
2023-04-18T10:44:08.412Z,97436.94
2023-04-18T10:46:24.036Z,97438.28
2023-04-18T10:48:38.452Z,97442.41
2023-04-18T10:51:12.675Z,97437.94
2023-04-18T10:53:14.370Z,97434.13
2023-04-18T10:55:26.148Z,97437.00
2023-04-18T10:57:48.687Z,97446.81
2023-04-18T10:59:52.815Z,97435.91
2023-04-18T11:01:57.198Z,97435.38
2023-04-18T11:03:59.789Z,97431.19
2023-04-18T11:06:02.879Z,97428.72
2023-04-18T11:08:04.997Z,97435.28
2023-04-18T11:10:08.624Z,97432.41
2023-04-18T11:12:11.215Z,97439.41
2023-04-18T11:14:13.005Z,97428.59
2023-04-18T11:16:26.950Z,97424.53
2023-04-18T11:18:40.906Z,97431.09
2023-04-18T11:20:50.198Z,97433.16
2023-04-18T11:22:54.648Z,97427.81
2023-04-18T11:25:00.795Z,97429.28
2023-04-18T11:27:04.323Z,97421.09
2023-04-18T11:29:06.100Z,97419.53
2023-04-18T11:31:08.367Z,97420.72
2023-04-18T11:33:16.789Z,97425.13
2023-04-18T11:35:18.824Z,97416.53
2023-04-18T11:37:21.017Z,97420.97
2023-04-18T11:39:23.092Z,97414.69
2023-04-18T11:41:24.804Z,97424.03
2023-04-18T11:43:26.493Z,97420.06
2023-04-18T11:45:28.360Z,97425.34
2023-04-18T11:47:33.871Z,97415.78
2023-04-18T11:49:35.694Z,97423.19
2023-04-18T11:51:43.503Z,97428.44
2023-04-18T11:53:45.379Z,97420.00
2023-04-18T11:55:55.984Z,97414.09
2023-04-18T11:57:59.988Z,97424.78
2023-04-18T12:00:01.981Z,97425.00
2023-04-18T12:04:16.648Z,97424.38
2023-04-18T12:06:18.533Z,97422.56
2023-04-18T12:08:20.914Z,97421.25
2023-04-18T12:10:22.436Z,97417.28
2023-04-18T12:12:24.001Z,97424.13
2023-04-18T12:16:02.118Z,97426.44
2023-04-18T12:18:05.438Z,97429.16
2023-04-18T12:20:09.770Z,97425.56
2023-04-18T12:22:11.383Z,97421.34
2023-04-18T12:24:17.184Z,97419.34
2023-04-18T12:26:18.781Z,97421.19
2023-04-18T12:28:21.154Z,97411.19
2023-04-18T12:30:33.736Z,97417.00
2023-04-18T12:32:36.248Z,97426.13
2023-04-18T12:34:37.832Z,97420.00
2023-04-18T12:36:39.346Z,97417.09
2023-04-18T12:38:41.137Z,97416.78
2023-04-18T12:40:42.662Z,97421.22
2023-04-18T12:42:45.313Z,97413.47
2023-04-18T12:44:48.404Z,97437.78
2023-04-18T12:46:50.748Z,97427.66
2023-04-18T12:48:52.504Z,97428.41
2023-04-18T12:50:54.213Z,97429.09
2023-04-18T12:52:58.891Z,97411.28
2023-04-18T12:55:01.012Z,97415.88
2023-04-18T12:57:03.202Z,97416.28
2023-04-18T12:59:04.697Z,97408.06
2023-04-18T13:01:06.552Z,97418.25
2023-04-18T13:03:09.684Z,97414.75
2023-04-18T13:05:14.278Z,97416.97
2023-04-18T13:07:16.030Z,97406.16
2023-04-18T13:09:17.657Z,97405.63
2023-04-18T13:11:20.549Z,97404.63
2023-04-18T13:13:22.176Z,97417.34
2023-04-18T13:15:23.856Z,97408.84
2023-04-18T13:17:26.020Z,97411.97
2023-04-18T13:19:27.519Z,97415.25
2023-04-18T13:21:29.169Z,97412.84
2023-04-18T13:23:30.704Z,97420.19
2023-04-18T13:25:32.321Z,97421.25
2023-04-18T13:27:34.246Z,97409.81
2023-04-18T13:29:38.072Z,97414.28
2023-04-18T13:31:39.711Z,97412.66
2023-04-18T13:33:41.568Z,97410.50
2023-04-18T13:35:43.133Z,97415.97
2023-04-18T13:37:44.698Z,97413.03
2023-04-18T13:39:46.276Z,97403.22
2023-04-18T13:41:47.871Z,97405.41
2023-04-18T13:43:49.439Z,97411.75
2023-04-18T13:45:53.985Z,97402.91
2023-04-18T13:47:55.973Z,97389.03
2023-04-18T13:49:57.892Z,97397.56
2023-04-18T13:51:59.687Z,97395.34
2023-04-18T13:54:01.656Z,97399.22
2023-04-18T13:56:03.382Z,97404.97
2023-04-18T13:58:05.160Z,97405.16
2023-04-18T14:00:09.084Z,97410.66
2023-04-18T14:02:16.477Z,97410.31
2023-04-18T14:04:18.855Z,97408.66
2023-04-18T14:06:20.650Z,97415.31
2023-04-18T14:08:22.231Z,97400.00
2023-04-18T14:10:23.907Z,97405.16
2023-04-18T14:12:25.548Z,97405.09
2023-04-18T14:14:27.133Z,97399.81
2023-04-18T14:16:31.757Z,97408.16
2023-04-18T14:18:34.159Z,97406.50
2023-04-18T14:20:36.240Z,97406.66
2023-04-18T14:22:37.815Z,97411.78
2023-04-18T14:24:39.612Z,97399.97
2023-04-18T14:26:41.759Z,97403.31
2023-04-18T14:28:43.365Z,97401.84
2023-04-18T14:30:44.929Z,97411.78
2023-04-18T14:32:46.533Z,97403.53
2023-04-18T14:34:48.115Z,97405.13
2023-04-18T14:36:49.693Z,97406.63
2023-04-18T14:38:51.212Z,97413.84
2023-04-18T14:40:54.004Z,97412.94
2023-04-18T14:42:55.987Z,97406.63
2023-04-18T14:44:57.508Z,97407.16
2023-04-18T14:46:59.048Z,97405.00
2023-04-18T14:49:00.715Z,97411.00
2023-04-18T14:51:04.844Z,97407.41
2023-04-18T14:53:06.849Z,97409.34
2023-04-18T14:55:09.798Z,97412.75
2023-04-18T14:57:13.055Z,97415.16
2023-04-18T14:59:16.762Z,97408.00
2023-04-18T15:01:18.805Z,97420.38
2023-04-18T15:03:20.660Z,97417.72
2023-04-18T15:05:23.726Z,97414.34
2023-04-18T15:07:25.320Z,97418.31
2023-04-18T15:09:26.803Z,97407.28
2023-04-18T15:11:28.321Z,97402.63
2023-04-18T15:13:30.635Z,97407.53
2023-04-18T15:15:35.482Z,97416.06
2023-04-18T15:17:37.055Z,97411.56
2023-04-18T15:19:38.791Z,97416.19
2023-04-18T15:21:40.429Z,97413.88
2023-04-18T15:23:41.941Z,97413.31
2023-04-18T15:25:44.886Z,97413.06
2023-04-18T15:27:46.390Z,97420.94
2023-04-18T15:29:47.987Z,97421.13
2023-04-18T15:31:49.754Z,97411.72
2023-04-18T15:33:51.332Z,97417.94
2023-04-18T15:35:55.251Z,97417.03
2023-04-18T15:37:57.267Z,97422.81
2023-04-18T15:39:58.883Z,97418.38
2023-04-18T15:42:00.449Z,97421.75
2023-04-18T15:44:03.120Z,97421.06
2023-04-18T15:46:04.889Z,97420.50
2023-04-18T15:48:06.678Z,97415.69
2023-04-18T15:50:09.672Z,97417.56
2023-04-18T15:52:11.338Z,97419.88
2023-04-18T15:54:13.080Z,97411.53
2023-04-18T15:56:14.852Z,97413.94
2023-04-18T15:58:16.467Z,97416.25
2023-04-18T16:00:19.566Z,97414.97
2023-04-18T16:02:21.283Z,97424.31
2023-04-18T16:04:23.984Z,97416.56
2023-04-18T16:06:27.239Z,97424.31
2023-04-18T16:08:29.875Z,97422.16
2023-04-18T16:10:32.327Z,97430.66
2023-04-18T16:12:34.590Z,97427.72
2023-04-18T16:14:36.111Z,97418.56
2023-04-18T16:16:37.833Z,97431.00
2023-04-18T16:18:39.714Z,97430.19
2023-04-18T16:20:41.161Z,97421.75
2023-04-18T16:22:42.749Z,97421.75
2023-04-18T16:24:44.241Z,97419.50
2023-04-18T16:26:45.782Z,97427.78
2023-04-18T16:28:48.404Z,97429.31
2023-04-18T16:30:50.113Z,97419.59
2023-04-18T16:32:52.146Z,97428.25
2023-04-18T16:34:54.134Z,97439.44
2023-04-18T16:36:55.768Z,97429.00
2023-04-18T16:38:57.332Z,97434.84
2023-04-18T16:41:00.916Z,97435.19
2023-04-18T16:43:02.489Z,97437.16
2023-04-18T16:45:04.423Z,97433.66
2023-04-18T16:47:08.287Z,97428.84
2023-04-18T16:49:10.202Z,97438.44
2023-04-18T16:51:12.964Z,97433.78
2023-04-18T16:53:14.577Z,97438.38
2023-04-18T16:55:16.251Z,97443.03
2023-04-18T16:57:17.897Z,97449.56
2023-04-18T16:59:19.525Z,97444.25
2023-04-18T17:01:21.322Z,97451.53
2023-04-18T17:03:22.886Z,97441.16
2023-04-18T17:05:25.813Z,97450.22
2023-04-18T17:07:27.558Z,97451.75
2023-04-18T17:09:30.178Z,97453.75
2023-04-18T17:11:34.663Z,97444.00
2023-04-18T17:13:36.464Z,97445.59
2023-04-18T17:15:38.330Z,97449.53
2023-04-18T17:17:40.115Z,97454.16
2023-04-18T17:19:41.789Z,97456.56
2023-04-18T17:21:43.977Z,97459.97
2023-04-18T17:23:45.614Z,97449.94
2023-04-18T17:25:47.491Z,97463.22
2023-04-18T17:27:49.229Z,97450.13
2023-04-18T17:29:50.891Z,97445.25
2023-04-18T17:31:52.637Z,97453.72
2023-04-18T17:33:54.583Z,97449.91
2023-04-18T17:35:56.241Z,97462.63
2023-04-18T17:37:58.009Z,97451.09
2023-04-18T17:40:01.175Z,97454.97
2023-04-18T17:42:02.999Z,97460.03
2023-04-18T17:44:05.456Z,97466.25
2023-04-18T17:46:06.983Z,97460.41
2023-04-18T17:48:08.578Z,97462.34
2023-04-18T17:50:10.752Z,97464.66
2023-04-18T17:52:12.342Z,97470.81
2023-04-18T17:54:14.044Z,97471.19
2023-04-18T17:56:15.599Z,97466.97
2023-04-18T17:58:17.232Z,97471.91
2023-04-18T18:00:18.985Z,97471.88
2023-04-18T18:02:20.563Z,97472.47
2023-04-18T18:04:25.818Z,97473.69
2023-04-18T18:06:28.411Z,97482.56
2023-04-18T18:08:30.617Z,97478.31
2023-04-18T18:10:32.284Z,97468.72
2023-04-18T18:12:35.711Z,97483.38
2023-04-18T18:14:37.740Z,97481.06
2023-04-18T18:16:39.712Z,97481.06
2023-04-18T18:18:41.870Z,97474.88
2023-04-18T18:20:43.663Z,97486.47
2023-04-18T18:22:45.599Z,97481.81
2023-04-18T18:24:47.319Z,97481.09
2023-04-18T18:26:51.000Z,97484.19
2023-04-18T18:28:53.945Z,97480.72
2023-04-18T18:30:55.619Z,97484.94
2023-04-18T18:32:57.293Z,97499.59
2023-04-18T18:34:58.966Z,97496.56
2023-04-18T18:37:00.569Z,97505.06
2023-04-18T18:39:02.290Z,97498.91
2023-04-18T18:41:04.503Z,97496.59
2023-04-18T18:43:06.254Z,97506.22
2023-04-18T18:45:08.882Z,97501.97
2023-04-18T18:47:10.503Z,97508.91
2023-04-18T18:49:12.303Z,97507.44
2023-04-18T18:51:15.986Z,97501.59
2023-04-18T18:53:17.993Z,97503.53
2023-04-18T18:55:19.539Z,97503.53
2023-04-18T18:57:21.202Z,97506.25
2023-04-18T18:59:22.720Z,97513.97
2023-04-18T19:01:24.431Z,97512.81
2023-04-18T19:03:26.293Z,97520.91
2023-04-18T19:05:27.894Z,97518.19
2023-04-18T19:07:30.186Z,97515.84
2023-04-18T19:09:31.799Z,97520.50
2023-04-18T19:11:33.393Z,97516.59
2023-04-18T19:13:35.372Z,97518.97
2023-04-18T19:15:36.866Z,97515.84
2023-04-18T19:17:38.467Z,97525.91
2023-04-18T19:19:40.107Z,97522.41
2023-04-18T19:21:45.791Z,97521.69
2023-04-18T19:23:47.414Z,97524.38
2023-04-18T19:25:48.939Z,97518.97
2023-04-18T19:27:51.178Z,97519.75
2023-04-18T19:29:55.764Z,97522.84
2023-04-18T19:31:57.387Z,97527.06
2023-04-18T19:33:58.946Z,97522.03
2023-04-18T19:36:00.549Z,97520.88
2023-04-18T19:38:02.648Z,97529.72
2023-04-18T19:40:04.628Z,97525.13
2023-04-18T19:42:07.314Z,97529.75
2023-04-18T19:44:08.900Z,97526.66
2023-04-18T19:46:10.759Z,97525.13
2023-04-18T19:48:12.454Z,97527.06
2023-04-18T19:50:14.525Z,97528.63
2023-04-18T19:52:16.540Z,97528.25
2023-04-18T19:54:21.646Z,97529.78
2023-04-18T19:56:23.582Z,97526.31
2023-04-18T19:58:44.584Z,97520.91
2023-04-18T20:00:46.315Z,97523.63
2023-04-18T20:02:48.130Z,97523.63
2023-04-18T20:04:49.969Z,97524.41
2023-04-18T20:06:51.885Z,97522.84
2023-04-18T20:08:54.235Z,97525.91
2023-04-18T20:10:56.479Z,97527.47
2023-04-18T20:12:58.006Z,97537.50
2023-04-18T20:14:59.681Z,97530.97
2023-04-18T20:17:01.205Z,97527.50
2023-04-18T20:19:03.539Z,97533.69
2023-04-18T20:21:09.672Z,97529.03
2023-04-18T20:23:11.502Z,97532.91
2023-04-18T20:25:13.058Z,97538.28
2023-04-18T20:27:15.211Z,97535.03
2023-04-18T20:29:16.977Z,97532.44
2023-04-18T20:31:18.722Z,97528.56
2023-04-18T20:33:20.485Z,97526.72
2023-04-18T20:35:22.336Z,97530.19
2023-04-18T20:37:24.420Z,97532.53
2023-04-18T20:39:26.262Z,97521.34
2023-04-18T20:41:31.065Z,97521.31
2023-04-18T20:43:37.084Z,97518.63
2023-04-18T20:45:42.555Z,97530.22
2023-04-18T20:47:44.116Z,97539.84
2023-04-18T20:49:45.941Z,97535.22
2023-04-18T20:51:47.704Z,97529.81
2023-04-18T20:53:49.390Z,97525.97
2023-04-18T20:55:50.986Z,97526.75
2023-04-18T20:57:53.611Z,97527.50
2023-04-18T20:59:58.446Z,97535.56
2023-04-18T21:02:00.758Z,97533.28
2023-04-18T21:04:02.759Z,97531.34
2023-04-18T21:06:04.580Z,97538.28
2023-04-18T21:08:06.293Z,97537.91
2023-04-18T21:10:08.389Z,97536.72
2023-04-18T21:12:10.049Z,97539.81
2023-04-18T21:14:11.760Z,97544.81
2023-04-18T21:16:13.342Z,97534.78
2023-04-18T21:18:15.003Z,97542.88
2023-04-18T21:20:17.068Z,97539.84
2023-04-18T21:22:18.682Z,97539.44
2023-04-18T21:24:20.353Z,97547.53
2023-04-18T21:26:22.118Z,97543.69
2023-04-18T21:28:23.711Z,97536.75
2023-04-18T21:30:25.300Z,97531.34
2023-04-18T21:32:26.885Z,97535.97
2023-04-18T21:34:28.668Z,97537.13
2023-04-18T21:36:31.397Z,97534.44
2023-04-18T21:38:32.934Z,97536.34
2023-04-18T21:40:34.439Z,97533.66
2023-04-18T21:42:39.577Z,97535.97
2023-04-18T21:44:42.218Z,97530.94
2023-04-18T21:46:44.030Z,97540.59
2023-04-18T21:48:47.006Z,97529.81
2023-04-18T21:50:54.883Z,97536.38
2023-04-18T21:52:56.485Z,97528.63
2023-04-18T21:54:59.157Z,97527.09
2023-04-18T21:57:00.671Z,97522.50
2023-04-18T21:59:02.134Z,97528.66
2023-04-18T22:01:03.713Z,97525.97
2023-04-18T22:03:05.552Z,97519.41
2023-04-18T22:05:08.046Z,97527.06
2023-04-18T22:07:09.956Z,97522.88
2023-04-18T22:09:11.993Z,97526.72
2023-04-18T22:11:13.686Z,97527.09
2023-04-18T22:13:16.591Z,97521.69
2023-04-18T22:15:18.174Z,97524.03
2023-04-18T22:17:21.945Z,97521.72
2023-04-18T22:19:24.708Z,97523.66
2023-04-18T22:21:26.389Z,97522.84
2023-04-18T22:23:28.166Z,97519.75
2023-04-18T22:25:30.323Z,97523.63
2023-04-18T22:27:31.852Z,97517.84
2023-04-18T22:29:33.381Z,97520.91
2023-04-18T22:31:34.960Z,97519.41
2023-04-18T22:33:36.494Z,97513.59
2023-04-18T22:35:38.066Z,97511.66
2023-04-18T22:37:39.740Z,97517.44
2023-04-18T22:39:41.252Z,97515.13
2023-04-18T22:41:43.222Z,97517.84
2023-04-18T22:43:47.733Z,97516.69
2023-04-18T22:45:50.971Z,97524.00
2023-04-18T22:47:53.180Z,97517.06
2023-04-18T22:49:54.805Z,97518.19
2023-04-18T22:51:57.024Z,97523.59
2023-04-18T22:53:58.554Z,97514.34
2023-04-18T22:56:00.255Z,97524.00
2023-04-18T22:58:03.070Z,97523.63
2023-04-18T23:00:06.476Z,97518.22
2023-04-18T23:02:08.130Z,97524.00
2023-04-18T23:04:09.949Z,97522.09
2023-04-18T23:06:11.699Z,97522.84
2023-04-18T23:08:13.195Z,97520.16
2023-04-18T23:10:14.726Z,97517.47
2023-04-18T23:12:16.572Z,97522.84
2023-04-18T23:14:18.256Z,97519.00
2023-04-18T23:16:19.768Z,97514.38
2023-04-18T23:18:21.290Z,97520.13
2023-04-18T23:20:23.966Z,97515.53
2023-04-18T23:22:25.528Z,97524.78
2023-04-18T23:24:27.518Z,97525.56
2023-04-18T23:26:29.057Z,97524.41
2023-04-18T23:28:30.639Z,97528.63
2023-04-18T23:30:35.287Z,97520.16
2023-04-18T23:32:36.924Z,97522.47
2023-04-18T23:34:38.489Z,97515.91
2023-04-18T23:36:40.518Z,97515.53
2023-04-18T23:38:42.757Z,97522.09
2023-04-18T23:40:44.294Z,97518.22
2023-04-18T23:42:46.404Z,97512.03
2023-04-18T23:44:47.984Z,97514.75
2023-04-18T23:46:53.544Z,97515.91
2023-04-18T23:48:55.193Z,97514.38
2023-04-18T23:50:57.389Z,97519.78
2023-04-18T23:53:01.275Z,97518.25
2023-04-18T23:55:02.799Z,97503.19
2023-04-18T23:57:04.921Z,97497.03
2023-04-18T23:59:06.523Z,97498.97
